sensor_id;sensor_type;location;lat;lon;timestamp;P1;durP1;ratioP1;P2;durP2;ratioP2
70444;SDS011;57902;49.638;11.070;2023-04-25T00:00:33;7.50;;;2.58;;
70444;SDS011;57902;49.638;11.070;2023-04-25T00:05:28;5.47;;;2.53;;
70444;SDS011;57902;49.638;11.070;2023-04-25T00:07:56;6.57;;;2.60;;
70444;SDS011;57902;49.638;11.070;2023-04-25T00:10:24;7.43;;;2.88;;
70444;SDS011;57902;49.638;11.070;2023-04-25T00:12:50;6.43;;;2.80;;
70444;SDS011;57902;49.638;11.070;2023-04-25T00:15:17;7.82;;;2.83;;
70444;SDS011;57902;49.638;11.070;2023-04-25T00:17:44;5.25;;;2.47;;
70444;SDS011;57902;49.638;11.070;2023-04-25T00:20:11;7.35;;;3.10;;
70444;SDS011;57902;49.638;11.070;2023-04-25T00:22:38;5.60;;;2.53;;
70444;SDS011;57902;49.638;11.070;2023-04-25T00:25:05;8.00;;;3.00;;
70444;SDS011;57902;49.638;11.070;2023-04-25T00:27:32;7.30;;;2.97;;
70444;SDS011;57902;49.638;11.070;2023-04-25T00:29:58;6.82;;;2.95;;
70444;SDS011;57902;49.638;11.070;2023-04-25T00:32:25;6.22;;;2.53;;
70444;SDS011;57902;49.638;11.070;2023-04-25T00:34:51;6.72;;;2.47;;
70444;SDS011;57902;49.638;11.070;2023-04-25T00:37:18;6.93;;;2.50;;
70444;SDS011;57902;49.638;11.070;2023-04-25T00:39:45;6.38;;;2.60;;
70444;SDS011;57902;49.638;11.070;2023-04-25T00:42:12;5.45;;;2.35;;
70444;SDS011;57902;49.638;11.070;2023-04-25T00:44:39;6.13;;;2.67;;
70444;SDS011;57902;49.638;11.070;2023-04-25T00:47:07;5.72;;;2.45;;
70444;SDS011;57902;49.638;11.070;2023-04-25T00:49:34;5.38;;;2.47;;
70444;SDS011;57902;49.638;11.070;2023-04-25T00:52:00;7.53;;;2.58;;
70444;SDS011;57902;49.638;11.070;2023-04-25T00:54:27;5.63;;;2.63;;
70444;SDS011;57902;49.638;11.070;2023-04-25T00:56:53;8.43;;;2.60;;
70444;SDS011;57902;49.638;11.070;2023-04-25T00:59:20;7.10;;;2.95;;
70444;SDS011;57902;49.638;11.070;2023-04-25T01:01:47;5.63;;;2.40;;
70444;SDS011;57902;49.638;11.070;2023-04-25T01:04:13;5.40;;;2.60;;
70444;SDS011;57902;49.638;11.070;2023-04-25T01:06:40;5.18;;;2.30;;
70444;SDS011;57902;49.638;11.070;2023-04-25T01:09:07;6.03;;;2.50;;
70444;SDS011;57902;49.638;11.070;2023-04-25T01:11:33;7.80;;;2.80;;
70444;SDS011;57902;49.638;11.070;2023-04-25T01:14:00;6.00;;;2.20;;
70444;SDS011;57902;49.638;11.070;2023-04-25T01:16:28;7.60;;;2.35;;
70444;SDS011;57902;49.638;11.070;2023-04-25T01:18:54;5.82;;;2.40;;
70444;SDS011;57902;49.638;11.070;2023-04-25T01:21:21;5.07;;;2.42;;
70444;SDS011;57902;49.638;11.070;2023-04-25T01:23:48;6.85;;;2.50;;
70444;SDS011;57902;49.638;11.070;2023-04-25T01:26:15;5.20;;;2.47;;
70444;SDS011;57902;49.638;11.070;2023-04-25T01:28:41;5.40;;;2.15;;
70444;SDS011;57902;49.638;11.070;2023-04-25T01:31:08;5.82;;;2.40;;
70444;SDS011;57902;49.638;11.070;2023-04-25T01:33:35;7.25;;;2.78;;
70444;SDS011;57902;49.638;11.070;2023-04-25T01:36:02;5.15;;;2.10;;
70444;SDS011;57902;49.638;11.070;2023-04-25T01:38:28;5.03;;;2.35;;
70444;SDS011;57902;49.638;11.070;2023-04-25T01:40:55;6.60;;;2.33;;
70444;SDS011;57902;49.638;11.070;2023-04-25T01:43:22;5.38;;;2.28;;
70444;SDS011;57902;49.638;11.070;2023-04-25T01:45:49;5.13;;;2.20;;
70444;SDS011;57902;49.638;11.070;2023-04-25T01:48:16;4.50;;;2.10;;
70444;SDS011;57902;49.638;11.070;2023-04-25T01:50:44;4.80;;;2.20;;
70444;SDS011;57902;49.638;11.070;2023-04-25T01:53:12;4.72;;;2.30;;
70444;SDS011;57902;49.638;11.070;2023-04-25T01:55:39;6.18;;;2.53;;
70444;SDS011;57902;49.638;11.070;2023-04-25T01:58:06;5.28;;;2.38;;
70444;SDS011;57902;49.638;11.070;2023-04-25T02:00:35;4.80;;;2.15;;
70444;SDS011;57902;49.638;11.070;2023-04-25T02:03:07;7.85;;;3.00;;
70444;SDS011;57902;49.638;11.070;2023-04-25T02:05:38;7.03;;;2.63;;
70444;SDS011;57902;49.638;11.070;2023-04-25T02:08:06;6.38;;;2.50;;
70444;SDS011;57902;49.638;11.070;2023-04-25T02:10:35;6.03;;;2.42;;
70444;SDS011;57902;49.638;11.070;2023-04-25T02:13:03;6.05;;;2.42;;
70444;SDS011;57902;49.638;11.070;2023-04-25T02:15:32;6.13;;;2.40;;
70444;SDS011;57902;49.638;11.070;2023-04-25T02:17:59;6.28;;;2.30;;
70444;SDS011;57902;49.638;11.070;2023-04-25T02:20:29;6.97;;;2.80;;
70444;SDS011;57902;49.638;11.070;2023-04-25T02:23:00;6.80;;;2.63;;
70444;SDS011;57902;49.638;11.070;2023-04-25T02:27:53;7.05;;;3.03;;
70444;SDS011;57902;49.638;11.070;2023-04-25T02:30:22;6.55;;;2.50;;
70444;SDS011;57902;49.638;11.070;2023-04-25T02:32:48;6.25;;;2.80;;
70444;SDS011;57902;49.638;11.070;2023-04-25T02:35:15;6.65;;;2.78;;
70444;SDS011;57902;49.638;11.070;2023-04-25T02:37:41;6.10;;;2.50;;
70444;SDS011;57902;49.638;11.070;2023-04-25T02:40:08;5.50;;;2.50;;
70444;SDS011;57902;49.638;11.070;2023-04-25T02:42:35;7.60;;;2.60;;
70444;SDS011;57902;49.638;11.070;2023-04-25T02:45:02;5.53;;;2.67;;
70444;SDS011;57902;49.638;11.070;2023-04-25T02:47:29;7.50;;;2.72;;
70444;SDS011;57902;49.638;11.070;2023-04-25T02:49:55;5.88;;;2.78;;
70444;SDS011;57902;49.638;11.070;2023-04-25T02:52:22;6.97;;;2.90;;
70444;SDS011;57902;49.638;11.070;2023-04-25T02:54:48;7.70;;;3.05;;
70444;SDS011;57902;49.638;11.070;2023-04-25T02:57:15;5.93;;;2.65;;
70444;SDS011;57902;49.638;11.070;2023-04-25T02:59:41;7.70;;;2.60;;
70444;SDS011;57902;49.638;11.070;2023-04-25T03:02:07;7.40;;;3.10;;
70444;SDS011;57902;49.638;11.070;2023-04-25T03:04:34;6.88;;;2.80;;
70444;SDS011;57902;49.638;11.070;2023-04-25T03:07:00;7.07;;;3.15;;
70444;SDS011;57902;49.638;11.070;2023-04-25T03:09:27;8.00;;;2.85;;
70444;SDS011;57902;49.638;11.070;2023-04-25T03:11:53;6.68;;;2.97;;
70444;SDS011;57902;49.638;11.070;2023-04-25T03:14:19;7.35;;;2.72;;
70444;SDS011;57902;49.638;11.070;2023-04-25T03:16:46;7.88;;;2.97;;
70444;SDS011;57902;49.638;11.070;2023-04-25T03:19:12;8.38;;;2.80;;
70444;SDS011;57902;49.638;11.070;2023-04-25T03:21:42;6.90;;;2.70;;
70444;SDS011;57902;49.638;11.070;2023-04-25T03:24:08;6.70;;;2.83;;
70444;SDS011;57902;49.638;11.070;2023-04-25T03:26:35;7.40;;;2.75;;
70444;SDS011;57902;49.638;11.070;2023-04-25T03:29:01;7.57;;;2.80;;
70444;SDS011;57902;49.638;11.070;2023-04-25T03:31:27;8.27;;;3.42;;
70444;SDS011;57902;49.638;11.070;2023-04-25T03:33:54;6.65;;;3.13;;
70444;SDS011;57902;49.638;11.070;2023-04-25T03:36:20;7.70;;;2.80;;
70444;SDS011;57902;49.638;11.070;2023-04-25T03:38:46;8.05;;;3.13;;
70444;SDS011;57902;49.638;11.070;2023-04-25T03:41:14;9.05;;;3.13;;
70444;SDS011;57902;49.638;11.070;2023-04-25T03:43:40;7.35;;;3.20;;
70444;SDS011;57902;49.638;11.070;2023-04-25T03:46:07;6.72;;;3.25;;
70444;SDS011;57902;49.638;11.070;2023-04-25T03:48:33;9.13;;;3.13;;
70444;SDS011;57902;49.638;11.070;2023-04-25T03:51:00;12.05;;;3.65;;
70444;SDS011;57902;49.638;11.070;2023-04-25T03:53:26;7.82;;;2.83;;
70444;SDS011;57902;49.638;11.070;2023-04-25T03:55:53;8.35;;;2.92;;
70444;SDS011;57902;49.638;11.070;2023-04-25T03:58:19;10.75;;;3.28;;
70444;SDS011;57902;49.638;11.070;2023-04-25T04:00:45;9.13;;;3.22;;
70444;SDS011;57902;49.638;11.070;2023-04-25T04:03:12;9.30;;;3.47;;
70444;SDS011;57902;49.638;11.070;2023-04-25T04:05:38;6.68;;;3.13;;
70444;SDS011;57902;49.638;11.070;2023-04-25T04:08:06;7.07;;;3.33;;
70444;SDS011;57902;49.638;11.070;2023-04-25T04:10:33;7.35;;;3.17;;
70444;SDS011;57902;49.638;11.070;2023-04-25T04:12:59;7.43;;;3.22;;
70444;SDS011;57902;49.638;11.070;2023-04-25T04:15:26;7.68;;;3.42;;
70444;SDS011;57902;49.638;11.070;2023-04-25T04:17:52;7.50;;;3.40;;
70444;SDS011;57902;49.638;11.070;2023-04-25T04:20:20;7.57;;;3.28;;
70444;SDS011;57902;49.638;11.070;2023-04-25T04:22:46;8.07;;;3.55;;
70444;SDS011;57902;49.638;11.070;2023-04-25T04:25:13;8.68;;;3.13;;
70444;SDS011;57902;49.638;11.070;2023-04-25T04:27:39;7.80;;;3.63;;
70444;SDS011;57902;49.638;11.070;2023-04-25T04:30:06;8.15;;;3.45;;
70444;SDS011;57902;49.638;11.070;2023-04-25T04:32:33;9.98;;;3.80;;
70444;SDS011;57902;49.638;11.070;2023-04-25T04:35:00;9.68;;;4.10;;
70444;SDS011;57902;49.638;11.070;2023-04-25T04:37:27;7.10;;;3.55;;
70444;SDS011;57902;49.638;11.070;2023-04-25T04:39:53;7.97;;;3.50;;
70444;SDS011;57902;49.638;11.070;2023-04-25T04:42:20;9.25;;;4.70;;
70444;SDS011;57902;49.638;11.070;2023-04-25T04:44:47;8.55;;;3.58;;
70444;SDS011;57902;49.638;11.070;2023-04-25T04:47:14;7.47;;;3.42;;
70444;SDS011;57902;49.638;11.070;2023-04-25T04:49:40;8.15;;;3.53;;
70444;SDS011;57902;49.638;11.070;2023-04-25T04:52:06;10.13;;;3.53;;
70444;SDS011;57902;49.638;11.070;2023-04-25T04:54:33;6.57;;;3.10;;
70444;SDS011;57902;49.638;11.070;2023-04-25T04:57:01;6.82;;;3.20;;
70444;SDS011;57902;49.638;11.070;2023-04-25T04:59:27;10.73;;;3.80;;
70444;SDS011;57902;49.638;11.070;2023-04-25T05:01:56;7.30;;;3.05;;
70444;SDS011;57902;49.638;11.070;2023-04-25T05:04:28;6.75;;;3.03;;
70444;SDS011;57902;49.638;11.070;2023-04-25T05:06:54;8.52;;;3.47;;
70444;SDS011;57902;49.638;11.070;2023-04-25T05:09:21;7.75;;;3.13;;
70444;SDS011;57902;49.638;11.070;2023-04-25T05:11:51;8.02;;;3.40;;
70444;SDS011;57902;49.638;11.070;2023-04-25T05:14:18;8.18;;;3.47;;
70444;SDS011;57902;49.638;11.070;2023-04-25T05:16:45;6.13;;;2.65;;
70444;SDS011;57902;49.638;11.070;2023-04-25T05:19:12;7.00;;;2.70;;
70444;SDS011;57902;49.638;11.070;2023-04-25T05:21:39;6.80;;;2.95;;
70444;SDS011;57902;49.638;11.070;2023-04-25T05:24:05;6.38;;;2.60;;
70444;SDS011;57902;49.638;11.070;2023-04-25T05:26:31;6.28;;;2.72;;
70444;SDS011;57902;49.638;11.070;2023-04-25T05:28:58;6.00;;;2.42;;
70444;SDS011;57902;49.638;11.070;2023-04-25T05:31:25;6.78;;;2.67;;
70444;SDS011;57902;49.638;11.070;2023-04-25T05:33:52;5.28;;;2.33;;
70444;SDS011;57902;49.638;11.070;2023-04-25T05:36:19;5.80;;;2.40;;
70444;SDS011;57902;49.638;11.070;2023-04-25T05:38:45;6.30;;;2.50;;
70444;SDS011;57902;49.638;11.070;2023-04-25T05:41:12;6.57;;;2.72;;
70444;SDS011;57902;49.638;11.070;2023-04-25T05:43:38;5.60;;;2.53;;
70444;SDS011;57902;49.638;11.070;2023-04-25T05:46:05;6.97;;;2.38;;
70444;SDS011;57902;49.638;11.070;2023-04-25T05:48:32;5.22;;;2.20;;
70444;SDS011;57902;49.638;11.070;2023-04-25T05:50:58;5.07;;;2.08;;
70444;SDS011;57902;49.638;11.070;2023-04-25T05:53:25;7.43;;;2.58;;
70444;SDS011;57902;49.638;11.070;2023-04-25T05:55:52;5.75;;;2.33;;
70444;SDS011;57902;49.638;11.070;2023-04-25T05:58:18;7.75;;;2.40;;
70444;SDS011;57902;49.638;11.070;2023-04-25T06:00:44;7.43;;;2.60;;
70444;SDS011;57902;49.638;11.070;2023-04-25T06:03:12;6.70;;;2.40;;
70444;SDS011;57902;49.638;11.070;2023-04-25T06:05:45;8.07;;;2.67;;
70444;SDS011;57902;49.638;11.070;2023-04-25T06:08:12;6.03;;;2.67;;
70444;SDS011;57902;49.638;11.070;2023-04-25T06:10:38;8.45;;;2.80;;
70444;SDS011;57902;49.638;11.070;2023-04-25T06:13:05;7.55;;;3.20;;
70444;SDS011;57902;49.638;11.070;2023-04-25T06:15:31;7.35;;;3.00;;
70444;SDS011;57902;49.638;11.070;2023-04-25T06:18:01;8.95;;;2.97;;
70444;SDS011;57902;49.638;11.070;2023-04-25T06:20:27;6.85;;;3.03;;
70444;SDS011;57902;49.638;11.070;2023-04-25T06:22:54;8.60;;;2.83;;
70444;SDS011;57902;49.638;11.070;2023-04-25T06:25:20;9.40;;;3.25;;
70444;SDS011;57902;49.638;11.070;2023-04-25T06:27:47;9.18;;;3.22;;
70444;SDS011;57902;49.638;11.070;2023-04-25T06:30:13;7.82;;;3.30;;
70444;SDS011;57902;49.638;11.070;2023-04-25T06:32:41;8.05;;;3.63;;
70444;SDS011;57902;49.638;11.070;2023-04-25T06:35:08;7.80;;;3.63;;
70444;SDS011;57902;49.638;11.070;2023-04-25T06:37:34;7.72;;;3.45;;
70444;SDS011;57902;49.638;11.070;2023-04-25T06:40:01;9.07;;;3.53;;
70444;SDS011;57902;49.638;11.070;2023-04-25T06:42:28;8.98;;;3.80;;
70444;SDS011;57902;49.638;11.070;2023-04-25T06:44:54;8.00;;;3.40;;
70444;SDS011;57902;49.638;11.070;2023-04-25T06:47:21;8.60;;;3.53;;
70444;SDS011;57902;49.638;11.070;2023-04-25T06:49:48;10.18;;;3.90;;
70444;SDS011;57902;49.638;11.070;2023-04-25T06:52:14;8.55;;;4.05;;
70444;SDS011;57902;49.638;11.070;2023-04-25T06:54:41;9.02;;;3.83;;
70444;SDS011;57902;49.638;11.070;2023-04-25T06:57:08;9.20;;;3.80;;
70444;SDS011;57902;49.638;11.070;2023-04-25T06:59:34;8.95;;;4.10;;
70444;SDS011;57902;49.638;11.070;2023-04-25T07:02:01;8.50;;;4.20;;
70444;SDS011;57902;49.638;11.070;2023-04-25T07:04:27;11.32;;;4.70;;
70444;SDS011;57902;49.638;11.070;2023-04-25T07:06:57;8.65;;;3.97;;
70444;SDS011;57902;49.638;11.070;2023-04-25T07:09:31;8.98;;;4.00;;
70444;SDS011;57902;49.638;11.070;2023-04-25T07:12:00;10.23;;;4.10;;
70444;SDS011;57902;49.638;11.070;2023-04-25T07:14:30;10.55;;;4.63;;
70444;SDS011;57902;49.638;11.070;2023-04-25T07:16:58;8.85;;;3.80;;
70444;SDS011;57902;49.638;11.070;2023-04-25T07:19:25;10.30;;;4.25;;
70444;SDS011;57902;49.638;11.070;2023-04-25T07:21:53;10.60;;;4.05;;
70444;SDS011;57902;49.638;11.070;2023-04-25T07:24:19;8.80;;;3.65;;
70444;SDS011;57902;49.638;11.070;2023-04-25T07:26:47;12.15;;;3.80;;
70444;SDS011;57902;49.638;11.070;2023-04-25T07:29:16;17.10;;;3.45;;
70444;SDS011;57902;49.638;11.070;2023-04-25T07:31:42;9.65;;;3.85;;
70444;SDS011;57902;49.638;11.070;2023-04-25T07:34:11;11.23;;;4.20;;
70444;SDS011;57902;49.638;11.070;2023-04-25T07:36:45;14.18;;;4.05;;
70444;SDS011;57902;49.638;11.070;2023-04-25T07:39:14;11.20;;;3.97;;
70444;SDS011;57902;49.638;11.070;2023-04-25T07:41:44;8.52;;;3.58;;
70444;SDS011;57902;49.638;11.070;2023-04-25T07:44:13;7.32;;;3.10;;
70444;SDS011;57902;49.638;11.070;2023-04-25T07:46:40;8.55;;;3.40;;
70444;SDS011;57902;49.638;11.070;2023-04-25T07:49:06;8.32;;;3.30;;
70444;SDS011;57902;49.638;11.070;2023-04-25T07:51:33;9.20;;;3.55;;
70444;SDS011;57902;49.638;11.070;2023-04-25T07:53:59;7.28;;;3.22;;
70444;SDS011;57902;49.638;11.070;2023-04-25T07:56:31;9.88;;;3.17;;
70444;SDS011;57902;49.638;11.070;2023-04-25T07:59:16;8.10;;;3.13;;
70444;SDS011;57902;49.638;11.070;2023-04-25T08:01:43;6.93;;;3.03;;
70444;SDS011;57902;49.638;11.070;2023-04-25T08:04:10;8.50;;;3.30;;
70444;SDS011;57902;49.638;11.070;2023-04-25T08:06:40;7.63;;;4.00;;
70444;SDS011;57902;49.638;11.070;2023-04-25T08:09:06;8.57;;;3.25;;
70444;SDS011;57902;49.638;11.070;2023-04-25T08:11:36;8.07;;;3.33;;
70444;SDS011;57902;49.638;11.070;2023-04-25T08:14:03;8.27;;;3.80;;
70444;SDS011;57902;49.638;11.070;2023-04-25T08:16:32;8.07;;;3.58;;
70444;SDS011;57902;49.638;11.070;2023-04-25T08:19:01;8.32;;;3.38;;
70444;SDS011;57902;49.638;11.070;2023-04-25T08:21:31;14.23;;;3.50;;
70444;SDS011;57902;49.638;11.070;2023-04-25T08:24:04;11.73;;;3.13;;
70444;SDS011;57902;49.638;11.070;2023-04-25T08:29:48;7.05;;;3.00;;
70444;SDS011;57902;49.638;11.070;2023-04-25T08:32:26;8.32;;;3.13;;
70444;SDS011;57902;49.638;11.070;2023-04-25T08:35:08;7.75;;;3.25;;
70444;SDS011;57902;49.638;11.070;2023-04-25T08:37:54;7.35;;;3.20;;
70444;SDS011;57902;49.638;11.070;2023-04-25T08:40:30;9.30;;;3.55;;
70444;SDS011;57902;49.638;11.070;2023-04-25T08:46:49;13.38;;;3.38;;
70444;SDS011;57902;49.638;11.070;2023-04-25T08:49:42;8.05;;;3.13;;
70444;SDS011;57902;49.638;11.070;2023-04-25T08:52:48;9.52;;;3.88;;
70444;SDS011;57902;49.638;11.070;2023-04-25T08:55:23;7.32;;;3.15;;
70444;SDS011;57902;49.638;11.070;2023-04-25T08:58:04;8.02;;;3.33;;
70444;SDS011;57902;49.638;11.070;2023-04-25T09:01:10;9.90;;;3.60;;
70444;SDS011;57902;49.638;11.070;2023-04-25T09:03:53;16.88;;;3.58;;
70444;SDS011;57902;49.638;11.070;2023-04-25T09:06:32;13.00;;;3.53;;
70444;SDS011;57902;49.638;11.070;2023-04-25T09:09:35;7.07;;;3.63;;
70444;SDS011;57902;49.638;11.070;2023-04-25T09:12:36;6.45;;;3.20;;
70444;SDS011;57902;49.638;11.070;2023-04-25T09:15:51;9.60;;;3.05;;
70444;SDS011;57902;49.638;11.070;2023-04-25T09:18:32;11.63;;;3.60;;
70444;SDS011;57902;49.638;11.070;2023-04-25T09:21:09;8.93;;;2.90;;
70444;SDS011;57902;49.638;11.070;2023-04-25T09:23:49;9.65;;;3.13;;
70444;SDS011;57902;49.638;11.070;2023-04-25T09:26:21;8.57;;;2.85;;
70444;SDS011;57902;49.638;11.070;2023-04-25T09:29:04;5.93;;;2.67;;
70444;SDS011;57902;49.638;11.070;2023-04-25T09:38:18;7.75;;;2.40;;
70444;SDS011;57902;49.638;11.070;2023-04-25T09:40:57;6.88;;;2.75;;
70444;SDS011;57902;49.638;11.070;2023-04-25T09:43:56;5.43;;;1.50;;
70444;SDS011;57902;49.638;11.070;2023-04-25T09:47:05;5.35;;;1.55;;
70444;SDS011;57902;49.638;11.070;2023-04-25T09:49:56;2.92;;;1.33;;
70444;SDS011;57902;49.638;11.070;2023-04-25T09:53:01;3.17;;;1.38;;
70444;SDS011;57902;49.638;11.070;2023-04-25T09:56:11;3.83;;;1.50;;
70444;SDS011;57902;49.638;11.070;2023-04-25T09:59:24;6.38;;;1.55;;
70444;SDS011;57902;49.638;11.070;2023-04-25T10:02:35;5.25;;;1.33;;
70444;SDS011;57902;49.638;11.070;2023-04-25T10:05:32;5.20;;;1.70;;
70444;SDS011;57902;49.638;11.070;2023-04-25T10:11:32;3.97;;;1.10;;
70444;SDS011;57902;49.638;11.070;2023-04-25T10:14:24;6.95;;;2.03;;
70444;SDS011;57902;49.638;11.070;2023-04-25T10:19:44;6.95;;;2.28;;
70444;SDS011;57902;49.638;11.070;2023-04-25T10:22:31;3.70;;;1.20;;
70444;SDS011;57902;49.638;11.070;2023-04-25T10:25:23;3.47;;;1.23;;
70444;SDS011;57902;49.638;11.070;2023-04-25T10:27:53;5.38;;;1.80;;
70444;SDS011;57902;49.638;11.070;2023-04-25T10:30:22;5.35;;;1.40;;
70444;SDS011;57902;49.638;11.070;2023-04-25T10:32:54;7.30;;;2.00;;
70444;SDS011;57902;49.638;11.070;2023-04-25T10:38:05;5.32;;;1.55;;
70444;SDS011;57902;49.638;11.070;2023-04-25T10:41:01;10.05;;;2.03;;
70444;SDS011;57902;49.638;11.070;2023-04-25T10:43:42;5.18;;;1.83;;
70444;SDS011;57902;49.638;11.070;2023-04-25T10:48:53;4.47;;;1.63;;
70444;SDS011;57902;49.638;11.070;2023-04-25T10:51:25;4.65;;;1.80;;
70444;SDS011;57902;49.638;11.070;2023-04-25T10:54:01;6.68;;;1.70;;
70444;SDS011;57902;49.638;11.070;2023-04-25T10:56:39;8.15;;;2.95;;
70444;SDS011;57902;49.638;11.070;2023-04-25T11:06:57;3.88;;;1.30;;
70444;SDS011;57902;49.638;11.070;2023-04-25T11:09:33;4.95;;;1.50;;
70444;SDS011;57902;49.638;11.070;2023-04-25T11:12:01;4.15;;;1.38;;
70444;SDS011;57902;49.638;11.070;2023-04-25T11:14:27;5.38;;;1.50;;
70444;SDS011;57902;49.638;11.070;2023-04-25T11:16:54;1.83;;;1.00;;
70444;SDS011;57902;49.638;11.070;2023-04-25T11:19:25;2.45;;;1.20;;
70444;SDS011;57902;49.638;11.070;2023-04-25T11:21:56;1.60;;;0.90;;
70444;SDS011;57902;49.638;11.070;2023-04-25T11:24:30;3.53;;;1.20;;
70444;SDS011;57902;49.638;11.070;2023-04-25T11:26:59;2.05;;;1.10;;
70444;SDS011;57902;49.638;11.070;2023-04-25T11:29:26;3.30;;;1.27;;
70444;SDS011;57902;49.638;11.070;2023-04-25T11:31:53;3.40;;;1.10;;
70444;SDS011;57902;49.638;11.070;2023-04-25T11:34:27;1.90;;;0.82;;
70444;SDS011;57902;49.638;11.070;2023-04-25T11:36:56;5.05;;;1.00;;
70444;SDS011;57902;49.638;11.070;2023-04-25T11:39:24;3.97;;;1.45;;
70444;SDS011;57902;49.638;11.070;2023-04-25T11:41:52;3.72;;;1.13;;
70444;SDS011;57902;49.638;11.070;2023-04-25T11:44:19;3.60;;;0.88;;
70444;SDS011;57902;49.638;11.070;2023-04-25T11:46:46;2.78;;;1.10;;
70444;SDS011;57902;49.638;11.070;2023-04-25T11:49:13;1.63;;;0.80;;
70444;SDS011;57902;49.638;11.070;2023-04-25T11:51:41;2.13;;;1.00;;
70444;SDS011;57902;49.638;11.070;2023-04-25T11:56:36;2.88;;;1.00;;
70444;SDS011;57902;49.638;11.070;2023-04-25T11:59:03;1.83;;;1.00;;
70444;SDS011;57902;49.638;11.070;2023-04-25T12:01:33;2.00;;;1.10;;
70444;SDS011;57902;49.638;11.070;2023-04-25T12:04:15;2.38;;;1.08;;
70444;SDS011;57902;49.638;11.070;2023-04-25T12:06:44;3.15;;;1.13;;
70444;SDS011;57902;49.638;11.070;2023-04-25T12:09:14;3.95;;;1.10;;
70444;SDS011;57902;49.638;11.070;2023-04-25T12:11:48;2.13;;;1.20;;
70444;SDS011;57902;49.638;11.070;2023-04-25T12:14:23;1.83;;;0.82;;
70444;SDS011;57902;49.638;11.070;2023-04-25T12:17:00;2.38;;;1.00;;
70444;SDS011;57902;49.638;11.070;2023-04-25T12:19:33;3.63;;;1.20;;
70444;SDS011;57902;49.638;11.070;2023-04-25T12:22:10;5.82;;;1.10;;
70444;SDS011;57902;49.638;11.070;2023-04-25T12:24:49;3.05;;;1.02;;
70444;SDS011;57902;49.638;11.070;2023-04-25T12:27:16;3.55;;;0.93;;
70444;SDS011;57902;49.638;11.070;2023-04-25T12:29:51;3.38;;;1.15;;
70444;SDS011;57902;49.638;11.070;2023-04-25T12:32:18;3.72;;;1.10;;
70444;SDS011;57902;49.638;11.070;2023-04-25T12:34:45;3.95;;;1.10;;
70444;SDS011;57902;49.638;11.070;2023-04-25T12:37:11;2.35;;;1.05;;
70444;SDS011;57902;49.638;11.070;2023-04-25T12:39:39;3.55;;;1.00;;
70444;SDS011;57902;49.638;11.070;2023-04-25T12:42:05;2.47;;;1.00;;
70444;SDS011;57902;49.638;11.070;2023-04-25T12:44:35;7.45;;;1.98;;
70444;SDS011;57902;49.638;11.070;2023-04-25T12:47:01;3.67;;;1.20;;
70444;SDS011;57902;49.638;11.070;2023-04-25T12:49:29;2.30;;;1.15;;
70444;SDS011;57902;49.638;11.070;2023-04-25T12:51:56;4.72;;;1.35;;
70444;SDS011;57902;49.638;11.070;2023-04-25T12:54:22;5.15;;;1.33;;
70444;SDS011;57902;49.638;11.070;2023-04-25T12:56:49;5.05;;;1.30;;
70444;SDS011;57902;49.638;11.070;2023-04-25T12:59:16;4.57;;;1.30;;
70444;SDS011;57902;49.638;11.070;2023-04-25T13:01:44;2.58;;;1.10;;
70444;SDS011;57902;49.638;11.070;2023-04-25T13:04:11;4.38;;;1.30;;
70444;SDS011;57902;49.638;11.070;2023-04-25T13:06:38;4.60;;;1.30;;
70444;SDS011;57902;49.638;11.070;2023-04-25T13:09:04;2.95;;;1.30;;
70444;SDS011;57902;49.638;11.070;2023-04-25T13:11:32;4.18;;;1.70;;
70444;SDS011;57902;49.638;11.070;2023-04-25T13:14:05;2.72;;;1.15;;
70444;SDS011;57902;49.638;11.070;2023-04-25T13:16:37;4.45;;;1.20;;
70444;SDS011;57902;49.638;11.070;2023-04-25T13:19:07;5.15;;;1.70;;
70444;SDS011;57902;49.638;11.070;2023-04-25T13:21:37;4.43;;;1.50;;
70444;SDS011;57902;49.638;11.070;2023-04-25T13:24:03;4.32;;;1.45;;
70444;SDS011;57902;49.638;11.070;2023-04-25T13:26:30;5.32;;;1.30;;
70444;SDS011;57902;49.638;11.070;2023-04-25T13:28:57;6.30;;;1.45;;
70444;SDS011;57902;49.638;11.070;2023-04-25T13:31:23;4.32;;;1.25;;
70444;SDS011;57902;49.638;11.070;2023-04-25T13:33:56;4.85;;;1.40;;
70444;SDS011;57902;49.638;11.070;2023-04-25T13:36:31;4.03;;;1.33;;
70444;SDS011;57902;49.638;11.070;2023-04-25T13:39:08;3.65;;;1.38;;
70444;SDS011;57902;49.638;11.070;2023-04-25T13:41:40;3.28;;;1.20;;
70444;SDS011;57902;49.638;11.070;2023-04-25T13:44:11;3.95;;;1.38;;
70444;SDS011;57902;49.638;11.070;2023-04-25T13:49:12;2.63;;;1.17;;
70444;SDS011;57902;49.638;11.070;2023-04-25T13:51:39;4.72;;;1.25;;
70444;SDS011;57902;49.638;11.070;2023-04-25T13:54:06;3.10;;;1.30;;
70444;SDS011;57902;49.638;11.070;2023-04-25T13:56:33;4.95;;;1.38;;
70444;SDS011;57902;49.638;11.070;2023-04-25T13:59:00;4.45;;;1.33;;
70444;SDS011;57902;49.638;11.070;2023-04-25T14:01:26;4.05;;;1.30;;
70444;SDS011;57902;49.638;11.070;2023-04-25T14:03:54;3.95;;;1.30;;
70444;SDS011;57902;49.638;11.070;2023-04-25T14:06:21;3.30;;;1.30;;
70444;SDS011;57902;49.638;11.070;2023-04-25T14:08:51;7.07;;;2.20;;
70444;SDS011;57902;49.638;11.070;2023-04-25T14:11:18;4.55;;;1.85;;
70444;SDS011;57902;49.638;11.070;2023-04-25T14:13:45;5.47;;;1.90;;
70444;SDS011;57902;49.638;11.070;2023-04-25T14:16:11;5.63;;;1.58;;
70444;SDS011;57902;49.638;11.070;2023-04-25T14:18:38;3.15;;;1.42;;
70444;SDS011;57902;49.638;11.070;2023-04-25T14:21:04;3.35;;;1.48;;
70444;SDS011;57902;49.638;11.070;2023-04-25T14:23:32;5.38;;;1.50;;
70444;SDS011;57902;49.638;11.070;2023-04-25T14:25:58;10.07;;;1.90;;
70444;SDS011;57902;49.638;11.070;2023-04-25T14:28:25;4.72;;;1.77;;
70444;SDS011;57902;49.638;11.070;2023-04-25T14:30:53;3.90;;;1.30;;
70444;SDS011;57902;49.638;11.070;2023-04-25T14:33:20;3.30;;;1.40;;
70444;SDS011;57902;49.638;11.070;2023-04-25T14:35:46;5.50;;;1.48;;
70444;SDS011;57902;49.638;11.070;2023-04-25T14:38:12;5.82;;;1.80;;
70444;SDS011;57902;49.638;11.070;2023-04-25T14:40:39;5.82;;;1.73;;
70444;SDS011;57902;49.638;11.070;2023-04-25T14:43:05;6.00;;;1.70;;
70444;SDS011;57902;49.638;11.070;2023-04-25T14:45:33;3.75;;;1.48;;
70444;SDS011;57902;49.638;11.070;2023-04-25T14:48:00;5.38;;;1.75;;
70444;SDS011;57902;49.638;11.070;2023-04-25T14:50:26;3.75;;;1.38;;
70444;SDS011;57902;49.638;11.070;2023-04-25T14:52:53;4.43;;;1.50;;
70444;SDS011;57902;49.638;11.070;2023-04-25T14:55:19;6.25;;;1.80;;
70444;SDS011;57902;49.638;11.070;2023-04-25T15:00:14;4.30;;;1.63;;
70444;SDS011;57902;49.638;11.070;2023-04-25T15:02:42;8.00;;;2.30;;
70444;SDS011;57902;49.638;11.070;2023-04-25T15:05:09;8.15;;;1.67;;
70444;SDS011;57902;49.638;11.070;2023-04-25T15:07:36;6.47;;;1.90;;
70444;SDS011;57902;49.638;11.070;2023-04-25T15:10:02;7.55;;;1.70;;
70444;SDS011;57902;49.638;11.070;2023-04-25T15:12:29;4.10;;;1.40;;
70444;SDS011;57902;49.638;11.070;2023-04-25T15:14:56;5.53;;;1.83;;
70444;SDS011;57902;49.638;11.070;2023-04-25T15:17:22;3.05;;;1.50;;
70444;SDS011;57902;49.638;11.070;2023-04-25T15:19:49;3.97;;;1.52;;
70444;SDS011;57902;49.638;11.070;2023-04-25T15:22:16;3.75;;;1.20;;
70444;SDS011;57902;49.638;11.070;2023-04-25T15:24:42;6.13;;;1.52;;
70444;SDS011;57902;49.638;11.070;2023-04-25T15:27:09;5.38;;;1.48;;
70444;SDS011;57902;49.638;11.070;2023-04-25T15:29:38;5.18;;;1.80;;
70444;SDS011;57902;49.638;11.070;2023-04-25T15:32:04;6.35;;;1.50;;
70444;SDS011;57902;49.638;11.070;2023-04-25T15:34:31;6.45;;;1.65;;